sensor_id;sensor_type;location;lat;lon;timestamp;pressure;altitude;pressure_sealevel;temperature;humidity
40570;BME280;26270;34.428;-119.710;2023-02-28T00:01:19;101496.42;;;17.27;39.62
40570;BME280;26270;34.428;-119.710;2023-02-28T00:03:48;101494.38;;;17.12;39.97
40570;BME280;26270;34.428;-119.710;2023-02-28T00:06:16;101491.30;;;17.21;39.91
40570;BME280;26270;34.428;-119.710;2023-02-28T00:08:44;101494.51;;;17.21;39.19
40570;BME280;26270;34.428;-119.710;2023-02-28T00:11:14;101490.41;;;17.09;39.87
40570;BME280;26270;34.428;-119.710;2023-02-28T00:13:44;101490.18;;;17.14;41.17
40570;BME280;26270;34.428;-119.710;2023-02-28T00:16:15;101494.04;;;17.13;41.26
40570;BME280;26270;34.428;-119.710;2023-02-28T00:18:44;101487.65;;;17.26;41.43
40570;BME280;26270;34.428;-119.710;2023-02-28T00:21:12;101488.48;;;17.03;40.72
40570;BME280;26270;34.428;-119.710;2023-02-28T00:23:40;101492.07;;;17.15;41.18
40570;BME280;26270;34.428;-119.710;2023-02-28T00:26:09;101496.78;;;17.10;41.02
40570;BME280;26270;34.428;-119.710;2023-02-28T00:28:38;101497.16;;;17.09;41.08
40570;BME280;26270;34.428;-119.710;2023-02-28T00:31:05;101497.84;;;17.01;42.02
40570;BME280;26270;34.428;-119.710;2023-02-28T00:33:34;101498.28;;;16.86;41.71
40570;BME280;26270;34.428;-119.710;2023-02-28T00:36:04;101496.56;;;16.90;40.98
40570;BME280;26270;34.428;-119.710;2023-02-28T00:38:33;101489.72;;;16.58;42.42
40570;BME280;26270;34.428;-119.710;2023-02-28T00:41:02;101480.11;;;16.57;42.92
40570;BME280;26270;34.428;-119.710;2023-02-28T00:43:30;101482.37;;;16.36;42.76
40570;BME280;26270;34.428;-119.710;2023-02-28T00:45:59;101492.68;;;16.38;43.30
40570;BME280;26270;34.428;-119.710;2023-02-28T00:48:26;101491.36;;;16.26;43.80
40570;BME280;26270;34.428;-119.710;2023-02-28T00:50:55;101486.55;;;16.16;44.87
40570;BME280;26270;34.428;-119.710;2023-02-28T00:53:23;101487.40;;;16.07;44.69
40570;BME280;26270;34.428;-119.710;2023-02-28T00:55:52;101490.42;;;15.98;44.91
40570;BME280;26270;34.428;-119.710;2023-02-28T00:58:20;101494.66;;;15.72;45.17
40570;BME280;26270;34.428;-119.710;2023-02-28T01:00:48;101496.01;;;15.45;45.12
40570;BME280;26270;34.428;-119.710;2023-02-28T01:03:17;101500.16;;;15.34;46.03
40570;BME280;26270;34.428;-119.710;2023-02-28T01:05:46;101498.07;;;15.31;46.66
40570;BME280;26270;34.428;-119.710;2023-02-28T01:08:15;101494.99;;;15.15;45.86
40570;BME280;26270;34.428;-119.710;2023-02-28T01:10:44;101496.98;;;14.95;47.08
40570;BME280;26270;34.428;-119.710;2023-02-28T01:13:13;101497.62;;;14.95;46.97
40570;BME280;26270;34.428;-119.710;2023-02-28T01:15:45;101494.39;;;14.79;47.26
40570;BME280;26270;34.428;-119.710;2023-02-28T01:18:16;101495.85;;;14.90;47.52
40570;BME280;26270;34.428;-119.710;2023-02-28T01:20:44;101499.03;;;14.73;47.73
40570;BME280;26270;34.428;-119.710;2023-02-28T01:23:12;101500.53;;;14.76;47.98
40570;BME280;26270;34.428;-119.710;2023-02-28T01:25:41;101503.05;;;14.88;47.97
40570;BME280;26270;34.428;-119.710;2023-02-28T01:28:09;101509.67;;;14.53;48.81
40570;BME280;26270;34.428;-119.710;2023-02-28T01:30:38;101516.27;;;14.65;50.04
40570;BME280;26270;34.428;-119.710;2023-02-28T01:33:06;101516.27;;;14.44;49.86
40570;BME280;26270;34.428;-119.710;2023-02-28T01:35:35;101517.61;;;14.46;49.73
40570;BME280;26270;34.428;-119.710;2023-02-28T01:38:04;101517.79;;;14.58;49.84
40570;BME280;26270;34.428;-119.710;2023-02-28T01:40:32;101516.85;;;14.59;50.60
40570;BME280;26270;34.428;-119.710;2023-02-28T01:43:00;101521.00;;;14.48;51.16
40570;BME280;26270;34.428;-119.710;2023-02-28T01:45:30;101523.65;;;14.33;51.96
40570;BME280;26270;34.428;-119.710;2023-02-28T01:48:02;101526.22;;;14.35;52.06
40570;BME280;26270;34.428;-119.710;2023-02-28T01:50:36;101529.47;;;14.39;51.53
40570;BME280;26270;34.428;-119.710;2023-02-28T01:53:12;101529.10;;;14.39;52.68
40570;BME280;26270;34.428;-119.710;2023-02-28T01:55:45;101528.72;;;14.34;52.76
40570;BME280;26270;34.428;-119.710;2023-02-28T01:58:15;101529.13;;;14.20;51.58
40570;BME280;26270;34.428;-119.710;2023-02-28T02:00:44;101526.68;;;14.29;52.37
40570;BME280;26270;34.428;-119.710;2023-02-28T02:03:14;101527.38;;;14.35;52.68
40570;BME280;26270;34.428;-119.710;2023-02-28T02:05:44;101527.00;;;14.15;53.28
40570;BME280;26270;34.428;-119.710;2023-02-28T02:08:15;101525.37;;;14.12;53.09
40570;BME280;26270;34.428;-119.710;2023-02-28T02:10:46;101525.95;;;14.06;53.53
40570;BME280;26270;34.428;-119.710;2023-02-28T02:13:30;101526.08;;;14.18;52.41
40570;BME280;26270;34.428;-119.710;2023-02-28T02:16:11;101522.01;;;14.02;53.16
40570;BME280;26270;34.428;-119.710;2023-02-28T02:18:47;101520.04;;;14.00;53.68
40570;BME280;26270;34.428;-119.710;2023-02-28T02:21:37;101517.89;;;14.24;53.00
40570;BME280;26270;34.428;-119.710;2023-02-28T02:24:30;101513.38;;;14.10;51.57
40570;BME280;26270;34.428;-119.710;2023-02-28T02:27:47;101512.84;;;13.85;53.51
40570;BME280;26270;34.428;-119.710;2023-02-28T02:30:41;101512.46;;;13.90;53.20
40570;BME280;26270;34.428;-119.710;2023-02-28T02:33:28;101508.33;;;13.91;53.50
40570;BME280;26270;34.428;-119.710;2023-02-28T02:36:02;101508.36;;;13.86;52.17
40570;BME280;26270;34.428;-119.710;2023-02-28T02:38:37;101509.99;;;13.81;53.07
40570;BME280;26270;34.428;-119.710;2023-02-28T02:41:15;101510.32;;;14.04;52.43
40570;BME280;26270;34.428;-119.710;2023-02-28T02:43:49;101511.15;;;13.90;53.47
40570;BME280;26270;34.428;-119.710;2023-02-28T02:46:23;101506.54;;;13.99;54.24
40570;BME280;26270;34.428;-119.710;2023-02-28T02:48:55;101503.39;;;13.68;56.34
40570;BME280;26270;34.428;-119.710;2023-02-28T02:51:25;101498.84;;;13.78;56.58
40570;BME280;26270;34.428;-119.710;2023-02-28T02:53:58;101501.66;;;13.69;57.06
40570;BME280;26270;34.428;-119.710;2023-02-28T02:56:31;101500.37;;;13.65;57.37
40570;BME280;26270;34.428;-119.710;2023-02-28T02:59:04;101504.63;;;13.64;58.37
40570;BME280;26270;34.428;-119.710;2023-02-28T03:01:35;101507.42;;;13.50;60.81
40570;BME280;26270;34.428;-119.710;2023-02-28T03:04:09;101510.89;;;13.45;62.11
40570;BME280;26270;34.428;-119.710;2023-02-28T03:06:38;101519.41;;;13.48;62.29
40570;BME280;26270;34.428;-119.710;2023-02-28T03:09:06;101525.65;;;13.41;62.84
40570;BME280;26270;34.428;-119.710;2023-02-28T03:11:36;101528.80;;;13.49;63.84
40570;BME280;26270;34.428;-119.710;2023-02-28T03:14:16;101525.97;;;13.25;64.15
40570;BME280;26270;34.428;-119.710;2023-02-28T03:17:31;101529.42;;;13.23;64.56
40570;BME280;26270;34.428;-119.710;2023-02-28T03:20:09;101529.46;;;13.04;66.22
40570;BME280;26270;34.428;-119.710;2023-02-28T03:22:49;101528.68;;;13.01;67.06
40570;BME280;26270;34.428;-119.710;2023-02-28T03:25:24;101523.34;;;13.11;68.03
40570;BME280;26270;34.428;-119.710;2023-02-28T03:28:02;101520.97;;;13.06;68.20
40570;BME280;26270;34.428;-119.710;2023-02-28T03:30:38;101518.82;;;12.96;68.88
40570;BME280;26270;34.428;-119.710;2023-02-28T03:33:10;101519.33;;;13.14;67.69
40570;BME280;26270;34.428;-119.710;2023-02-28T03:35:43;101517.64;;;12.96;69.50
40570;BME280;26270;34.428;-119.710;2023-02-28T03:38:17;101513.89;;;12.84;70.06
40570;BME280;26270;34.428;-119.710;2023-02-28T03:40:50;101519.57;;;12.85;70.34
40570;BME280;26270;34.428;-119.710;2023-02-28T03:43:23;101524.20;;;12.77;70.38
40570;BME280;26270;34.428;-119.710;2023-02-28T03:45:55;101533.54;;;12.75;70.10
40570;BME280;26270;34.428;-119.710;2023-02-28T03:48:27;101527.65;;;12.83;69.43
40570;BME280;26270;34.428;-119.710;2023-02-28T03:50:59;101527.12;;;12.82;69.97
40570;BME280;26270;34.428;-119.710;2023-02-28T03:53:31;101523.87;;;12.71;70.57
40570;BME280;26270;34.428;-119.710;2023-02-28T03:56:06;101513.78;;;12.67;71.07
40570;BME280;26270;34.428;-119.710;2023-02-28T03:58:42;101516.56;;;12.59;71.14
40570;BME280;26270;34.428;-119.710;2023-02-28T04:01:14;101520.22;;;12.61;71.25
40570;BME280;26270;34.428;-119.710;2023-02-28T04:03:46;101514.31;;;12.59;71.90
40570;BME280;26270;34.428;-119.710;2023-02-28T04:06:17;101506.30;;;12.64;72.10
40570;BME280;26270;34.428;-119.710;2023-02-28T04:08:47;101507.69;;;12.51;72.36
40570;BME280;26270;34.428;-119.710;2023-02-28T04:11:22;101509.26;;;12.55;71.86
40570;BME280;26270;34.428;-119.710;2023-02-28T04:13:51;101505.33;;;12.49;72.09
40570;BME280;26270;34.428;-119.710;2023-02-28T04:16:19;101510.76;;;12.41;72.19
40570;BME280;26270;34.428;-119.710;2023-02-28T04:18:48;101515.36;;;12.44;72.25
40570;BME280;26270;34.428;-119.710;2023-02-28T04:21:16;101513.50;;;12.51;72.85
40570;BME280;26270;34.428;-119.710;2023-02-28T04:23:45;101519.15;;;12.53;72.15
40570;BME280;26270;34.428;-119.710;2023-02-28T04:26:13;101521.02;;;12.46;72.75
40570;BME280;26270;34.428;-119.710;2023-02-28T04:28:42;101519.41;;;12.54;73.35
40570;BME280;26270;34.428;-119.710;2023-02-28T04:31:10;101516.87;;;12.42;73.01
40570;BME280;26270;34.428;-119.710;2023-02-28T04:33:38;101511.69;;;12.56;73.58
40570;BME280;26270;34.428;-119.710;2023-02-28T04:36:08;101506.75;;;12.52;73.91
40570;BME280;26270;34.428;-119.710;2023-02-28T04:38:38;101511.98;;;12.38;73.65
40570;BME280;26270;34.428;-119.710;2023-02-28T04:41:06;101510.02;;;12.54;74.31
40570;BME280;26270;34.428;-119.710;2023-02-28T04:43:34;101518.64;;;12.41;74.46
40570;BME280;26270;34.428;-119.710;2023-02-28T04:46:05;101530.29;;;12.45;73.55
40570;BME280;26270;34.428;-119.710;2023-02-28T04:48:36;101528.82;;;12.54;73.89
40570;BME280;26270;34.428;-119.710;2023-02-28T04:51:08;101530.00;;;12.57;73.54
40570;BME280;26270;34.428;-119.710;2023-02-28T04:53:38;101529.62;;;12.53;74.54
40570;BME280;26270;34.428;-119.710;2023-02-28T04:56:10;101531.36;;;12.51;74.19
40570;BME280;26270;34.428;-119.710;2023-02-28T04:58:39;101529.62;;;12.49;74.58
40570;BME280;26270;34.428;-119.710;2023-02-28T05:03:19;101527.69;;;12.54;74.22
40570;BME280;26270;34.428;-119.710;2023-02-28T05:05:48;101523.40;;;12.54;74.15
40570;BME280;26270;34.428;-119.710;2023-02-28T05:08:16;101523.83;;;12.71;74.26
40570;BME280;26270;34.428;-119.710;2023-02-28T05:10:44;101523.17;;;12.65;73.99
40570;BME280;26270;34.428;-119.710;2023-02-28T05:13:13;101520.34;;;12.55;74.31
40570;BME280;26270;34.428;-119.710;2023-02-28T05:15:41;101524.13;;;12.57;73.37
40570;BME280;26270;34.428;-119.710;2023-02-28T05:18:09;101525.33;;;12.57;73.85
40570;BME280;26270;34.428;-119.710;2023-02-28T05:20:37;101528.53;;;12.58;74.46
40570;BME280;26270;34.428;-119.710;2023-02-28T05:23:06;101534.41;;;12.48;73.88
40570;BME280;26270;34.428;-119.710;2023-02-28T05:25:33;101535.77;;;12.15;74.93
40570;BME280;26270;34.428;-119.710;2023-02-28T05:28:01;101530.45;;;12.37;75.20
40570;BME280;26270;34.428;-119.710;2023-02-28T05:30:30;101532.68;;;12.30;74.72
40570;BME280;26270;34.428;-119.710;2023-02-28T05:32:59;101533.81;;;12.33;75.34
40570;BME280;26270;34.428;-119.710;2023-02-28T05:35:27;101537.14;;;12.39;75.22
40570;BME280;26270;34.428;-119.710;2023-02-28T05:37:55;101536.64;;;12.49;75.21
40570;BME280;26270;34.428;-119.710;2023-02-28T05:40:23;101539.32;;;12.52;75.12
40570;BME280;26270;34.428;-119.710;2023-02-28T05:42:52;101539.19;;;12.42;75.22
40570;BME280;26270;34.428;-119.710;2023-02-28T05:45:20;101544.36;;;12.39;75.57
40570;BME280;26270;34.428;-119.710;2023-02-28T05:47:48;101543.59;;;12.36;74.95
40570;BME280;26270;34.428;-119.710;2023-02-28T05:50:16;101547.24;;;12.35;74.77
40570;BME280;26270;34.428;-119.710;2023-02-28T05:52:44;101546.47;;;12.29;75.19
40570;BME280;26270;34.428;-119.710;2023-02-28T05:55:16;101548.73;;;12.29;75.32
40570;BME280;26270;34.428;-119.710;2023-02-28T05:57:45;101555.39;;;12.26;75.40
40570;BME280;26270;34.428;-119.710;2023-02-28T06:00:14;101554.19;;;12.25;75.32
40570;BME280;26270;34.428;-119.710;2023-02-28T06:02:42;101553.80;;;12.25;75.71
40570;BME280;26270;34.428;-119.710;2023-02-28T06:05:15;101556.01;;;12.20;75.71
40570;BME280;26270;34.428;-119.710;2023-02-28T06:07:44;101555.71;;;12.30;75.33
40570;BME280;26270;34.428;-119.710;2023-02-28T06:10:13;101557.87;;;12.41;75.32
40570;BME280;26270;34.428;-119.710;2023-02-28T06:12:42;101553.29;;;12.30;75.01
40570;BME280;26270;34.428;-119.710;2023-02-28T06:15:13;101555.29;;;12.22;75.09
40570;BME280;26270;34.428;-119.710;2023-02-28T06:17:41;101552.34;;;12.12;75.78
40570;BME280;26270;34.428;-119.710;2023-02-28T06:20:11;101550.14;;;12.12;75.99
40570;BME280;26270;34.428;-119.710;2023-02-28T06:22:40;101555.52;;;11.94;76.00
40570;BME280;26270;34.428;-119.710;2023-02-28T06:25:09;101559.52;;;11.99;76.10
40570;BME280;26270;34.428;-119.710;2023-02-28T06:27:38;101560.77;;;11.91;75.95
40570;BME280;26270;34.428;-119.710;2023-02-28T06:30:07;101561.40;;;12.04;75.50
40570;BME280;26270;34.428;-119.710;2023-02-28T06:32:35;101564.63;;;11.93;75.17
40570;BME280;26270;34.428;-119.710;2023-02-28T06:35:04;101560.89;;;11.83;75.82
40570;BME280;26270;34.428;-119.710;2023-02-28T06:37:33;101558.14;;;11.94;75.64
40570;BME280;26270;34.428;-119.710;2023-02-28T06:40:00;101554.54;;;11.88;75.55
40570;BME280;26270;34.428;-119.710;2023-02-28T06:42:29;101554.85;;;11.80;75.70
40570;BME280;26270;34.428;-119.710;2023-02-28T06:44:56;101557.10;;;11.76;75.61
40570;BME280;26270;34.428;-119.710;2023-02-28T06:47:25;101559.16;;;11.68;75.64
40570;BME280;26270;34.428;-119.710;2023-02-28T06:49:53;101558.59;;;11.65;76.12
40570;BME280;26270;34.428;-119.710;2023-02-28T06:52:22;101561.52;;;11.59;75.60
40570;BME280;26270;34.428;-119.710;2023-02-28T06:54:50;101560.74;;;11.53;76.03
40570;BME280;26270;34.428;-119.710;2023-02-28T06:57:19;101563.25;;;11.45;76.12
40570;BME280;26270;34.428;-119.710;2023-02-28T06:59:47;101562.34;;;11.56;75.84
40570;BME280;26270;34.428;-119.710;2023-02-28T07:02:17;101564.40;;;11.31;76.04
40570;BME280;26270;34.428;-119.710;2023-02-28T07:04:45;101561.20;;;11.31;76.15
40570;BME280;26270;34.428;-119.710;2023-02-28T07:07:14;101560.46;;;11.17;75.64
40570;BME280;26270;34.428;-119.710;2023-02-28T07:09:42;101559.26;;;11.25;75.93
40570;BME280;26270;34.428;-119.710;2023-02-28T07:12:11;101561.83;;;10.88;76.54
40570;BME280;26270;34.428;-119.710;2023-02-28T07:14:39;101563.04;;;10.71;76.52
40570;BME280;26270;34.428;-119.710;2023-02-28T07:17:08;101562.33;;;10.97;76.15
40570;BME280;26270;34.428;-119.710;2023-02-28T07:19:37;101568.80;;;10.98;75.76
40570;BME280;26270;34.428;-119.710;2023-02-28T07:22:05;101571.87;;;10.90;75.99
40570;BME280;26270;34.428;-119.710;2023-02-28T07:24:34;101561.97;;;11.10;75.91
40570;BME280;26270;34.428;-119.710;2023-02-28T07:27:03;101567.60;;;10.78;75.79
40570;BME280;26270;34.428;-119.710;2023-02-28T07:29:31;101569.22;;;10.73;75.78
40570;BME280;26270;34.428;-119.710;2023-02-28T07:32:00;101577.08;;;10.65;75.71
40570;BME280;26270;34.428;-119.710;2023-02-28T07:34:28;101582.50;;;10.45;76.43
40570;BME280;26270;34.428;-119.710;2023-02-28T07:36:57;101587.27;;;10.18;77.10
40570;BME280;26270;34.428;-119.710;2023-02-28T07:39:25;101578.64;;;10.25;77.32
40570;BME280;26270;34.428;-119.710;2023-02-28T07:41:53;101577.99;;;10.44;76.91
40570;BME280;26270;34.428;-119.710;2023-02-28T07:44:22;101575.10;;;10.31;77.04
40570;BME280;26270;34.428;-119.710;2023-02-28T07:46:55;101576.08;;;10.17;76.95
40570;BME280;26270;34.428;-119.710;2023-02-28T07:49:23;101577.73;;;10.18;77.67
40570;BME280;26270;34.428;-119.710;2023-02-28T07:51:52;101581.09;;;10.38;76.91
40570;BME280;26270;34.428;-119.710;2023-02-28T07:54:20;101581.07;;;10.38;76.78
40570;BME280;26270;34.428;-119.710;2023-02-28T07:56:49;101576.72;;;10.45;76.61
40570;BME280;26270;34.428;-119.710;2023-02-28T07:59:17;101579.15;;;10.65;76.24
40570;BME280;26270;34.428;-119.710;2023-02-28T08:01:46;101580.78;;;10.61;76.62
40570;BME280;26270;34.428;-119.710;2023-02-28T08:04:14;101578.25;;;10.77;76.18
40570;BME280;26270;34.428;-119.710;2023-02-28T08:06:43;101578.28;;;10.78;76.06
40570;BME280;26270;34.428;-119.710;2023-02-28T08:09:11;101573.15;;;10.79;75.84
40570;BME280;26270;34.428;-119.710;2023-02-28T08:11:40;101572.77;;;10.79;75.71
40570;BME280;26270;34.428;-119.710;2023-02-28T08:14:08;101566.98;;;10.84;76.38
40570;BME280;26270;34.428;-119.710;2023-02-28T08:16:37;101563.89;;;10.81;75.80
40570;BME280;26270;34.428;-119.710;2023-02-28T08:19:06;101554.95;;;10.94;76.24
40570;BME280;26270;34.428;-119.710;2023-02-28T08:21:34;101553.85;;;10.68;75.84
40570;BME280;26270;34.428;-119.710;2023-02-28T08:24:03;101556.79;;;10.76;75.65
40570;BME280;26270;34.428;-119.710;2023-02-28T08:26:32;101560.45;;;10.67;75.84
40570;BME280;26270;34.428;-119.710;2023-02-28T08:29:01;101562.50;;;10.59;75.80
40570;BME280;26270;34.428;-119.710;2023-02-28T08:31:29;101565.62;;;10.60;75.39
40570;BME280;26270;34.428;-119.710;2023-02-28T08:33:58;101562.23;;;10.50;75.44
40570;BME280;26270;34.428;-119.710;2023-02-28T08:36:26;101557.08;;;10.22;75.70
40570;BME280;26270;34.428;-119.710;2023-02-28T08:38:55;101555.38;;;10.16;76.40
40570;BME280;26270;34.428;-119.710;2023-02-28T08:41:24;101553.28;;;10.35;75.76
40570;BME280;26270;34.428;-119.710;2023-02-28T08:43:52;101561.09;;;10.27;75.87
40570;BME280;26270;34.428;-119.710;2023-02-28T08:46:20;101559.77;;;10.41;75.45
40570;BME280;26270;34.428;-119.710;2023-02-28T08:48:52;101562.53;;;10.13;75.57
40570;BME280;26270;34.428;-119.710;2023-02-28T08:51:20;101559.95;;;9.94;75.90
40570;BME280;26270;34.428;-119.710;2023-02-28T08:53:48;101559.89;;;10.12;76.06
40570;BME280;26270;34.428;-119.710;2023-02-28T08:56:17;101557.77;;;9.95;75.87
40570;BME280;26270;34.428;-119.710;2023-02-28T08:58:46;101557.30;;;9.98;75.77
40570;BME280;26270;34.428;-119.710;2023-02-28T09:01:17;101556.46;;;10.07;75.91
40570;BME280;26270;34.428;-119.710;2023-02-28T09:03:46;101561.21;;;9.93;76.68
40570;BME280;26270;34.428;-119.710;2023-02-28T09:06:16;101563.38;;;9.91;76.37
40570;BME280;26270;34.428;-119.710;2023-02-28T09:08:44;101562.50;;;9.85;76.13
40570;BME280;26270;34.428;-119.710;2023-02-28T09:11:12;101557.66;;;9.73;76.23
40570;BME280;26270;34.428;-119.710;2023-02-28T09:13:40;101555.91;;;9.59;77.06
40570;BME280;26270;34.428;-119.710;2023-02-28T09:16:10;101559.20;;;9.66;76.45
40570;BME280;26270;34.428;-119.710;2023-02-28T09:18:40;101565.80;;;9.75;76.00
40570;BME280;26270;34.428;-119.710;2023-02-28T09:21:10;101562.77;;;9.76;76.80
40570;BME280;26270;34.428;-119.710;2023-02-28T09:23:38;101559.44;;;9.87;76.42
40570;BME280;26270;34.428;-119.710;2023-02-28T09:26:06;101557.43;;;9.71;76.56
40570;BME280;26270;34.428;-119.710;2023-02-28T09:28:34;101559.86;;;9.83;75.98
40570;BME280;26270;34.428;-119.710;2023-02-28T09:31:03;101558.44;;;9.66;76.65
40570;BME280;26270;34.428;-119.710;2023-02-28T09:33:31;101550.86;;;9.73;75.56
40570;BME280;26270;34.428;-119.710;2023-02-28T09:36:00;101552.63;;;9.68;76.27
40570;BME280;26270;34.428;-119.710;2023-02-28T09:38:29;101550.38;;;9.59;75.88
40570;BME280;26270;34.428;-119.710;2023-02-28T09:41:00;101549.85;;;9.52;75.86
40570;BME280;26270;34.428;-119.710;2023-02-28T09:43:33;101548.97;;;9.65;75.67
40570;BME280;26270;34.428;-119.710;2023-02-28T09:46:08;101548.75;;;9.55;76.42
40570;BME280;26270;34.428;-119.710;2023-02-28T09:48:42;101548.02;;;9.52;75.73
40570;BME280;26270;34.428;-119.710;2023-02-28T09:51:23;101543.88;;;9.46;75.97
40570;BME280;26270;34.428;-119.710;2023-02-28T09:53:55;101541.20;;;9.32;75.69
40570;BME280;26270;34.428;-119.710;2023-02-28T09:56:25;101537.09;;;9.33;76.00
40570;BME280;26270;34.428;-119.710;2023-02-28T09:58:58;101531.76;;;9.19;76.31
40570;BME280;26270;34.428;-119.710;2023-02-28T10:01:34;101534.63;;;9.23;76.32
40570;BME280;26270;34.428;-119.710;2023-02-28T10:04:10;101533.13;;;9.37;76.38
40570;BME280;26270;34.428;-119.710;2023-02-28T10:06:46;101530.95;;;9.32;76.25
40570;BME280;26270;34.428;-119.710;2023-02-28T10:09:18;101528.51;;;9.26;76.70
40570;BME280;26270;34.428;-119.710;2023-02-28T10:11:52;101528.52;;;9.36;75.91
40570;BME280;26270;34.428;-119.710;2023-02-28T10:14:22;101524.98;;;9.24;76.52
40570;BME280;26270;34.428;-119.710;2023-02-28T10:16:54;101523.23;;;9.53;76.21
40570;BME280;26270;34.428;-119.710;2023-02-28T10:19:28;101523.42;;;9.31;76.68
40570;BME280;26270;34.428;-119.710;2023-02-28T10:22:00;101526.79;;;9.34;76.28
40570;BME280;26270;34.428;-119.710;2023-02-28T10:24:32;101523.55;;;8.85;75.95
40570;BME280;26270;34.428;-119.710;2023-02-28T10:27:05;101516.26;;;9.08;76.64
40570;BME280;26270;34.428;-119.710;2023-02-28T10:29:34;101512.49;;;9.06;76.11
40570;BME280;26270;34.428;-119.710;2023-02-28T10:32:03;101508.75;;;8.86;76.21
40570;BME280;26270;34.428;-119.710;2023-02-28T10:34:32;101506.12;;;9.21;76.29
40570;BME280;26270;34.428;-119.710;2023-02-28T10:37:00;101502.53;;;8.41;77.66
40570;BME280;26270;34.428;-119.710;2023-02-28T10:39:38;101502.03;;;8.15;78.24
40570;BME280;26270;34.428;-119.710;2023-02-28T10:42:22;101493.15;;;8.72;78.01
40570;BME280;26270;34.428;-119.710;2023-02-28T10:44:49;101488.59;;;8.66;77.47
40570;BME280;26270;34.428;-119.710;2023-02-28T10:47:34;101485.72;;;8.73;77.34
40570;BME280;26270;34.428;-119.710;2023-02-28T10:50:02;101486.08;;;8.70;77.31
40570;BME280;26270;34.428;-119.710;2023-02-28T10:52:37;101485.24;;;8.56;77.34
40570;BME280;26270;34.428;-119.710;2023-02-28T10:55:20;101485.50;;;8.67;77.62
40570;BME280;26270;34.428;-119.710;2023-02-28T10:57:49;101484.33;;;8.45;77.31
40570;BME280;26270;34.428;-119.710;2023-02-28T11:00:19;101484.99;;;8.68;77.32
40570;BME280;26270;34.428;-119.710;2023-02-28T11:02:48;101481.78;;;8.58;76.89
40570;BME280;26270;34.428;-119.710;2023-02-28T11:05:35;101482.97;;;8.55;76.53
40570;BME280;26270;34.428;-119.710;2023-02-28T11:08:11;101477.04;;;8.67;77.33
40570;BME280;26270;34.428;-119.710;2023-02-28T11:10:43;101478.90;;;8.50;77.58
40570;BME280;26270;34.428;-119.710;2023-02-28T11:13:19;101470.62;;;8.56;77.24
40570;BME280;26270;34.428;-119.710;2023-02-28T11:15:52;101468.18;;;8.51;77.11
40570;BME280;26270;34.428;-119.710;2023-02-28T11:18:25;101460.03;;;8.49;77.36
40570;BME280;26270;34.428;-119.710;2023-02-28T11:20:57;101455.06;;;8.62;76.71
40570;BME280;26270;34.428;-119.710;2023-02-28T11:23:29;101453.10;;;8.57;76.80
40570;BME280;26270;34.428;-119.710;2023-02-28T11:26:01;101459.51;;;8.30;76.89
40570;BME280;26270;34.428;-119.710;2023-02-28T11:28:32;101471.62;;;8.30;76.95
40570;BME280;26270;34.428;-119.710;2023-02-28T11:31:04;101477.92;;;8.25;76.97
40570;BME280;26270;34.428;-119.710;2023-02-28T11:33:41;101476.65;;;8.41;77.13
40570;BME280;26270;34.428;-119.710;2023-02-28T11:36:13;101476.87;;;8.48;76.38
40570;BME280;26270;34.428;-119.710;2023-02-28T11:38:42;101479.57;;;8.24;77.03
40570;BME280;26270;34.428;-119.710;2023-02-28T11:41:22;101473.90;;;8.30;76.60
40570;BME280;26270;34.428;-119.710;2023-02-28T11:44:02;101467.45;;;8.48;76.73
40570;BME280;26270;34.428;-119.710;2023-02-28T11:46:35;101472.16;;;8.31;77.37
40570;BME280;26270;34.428;-119.710;2023-02-28T11:49:16;101468.45;;;8.41;76.38
40570;BME280;26270;34.428;-119.710;2023-02-28T11:51:49;101464.97;;;8.25;76.93
40570;BME280;26270;34.428;-119.710;2023-02-28T11:54:31;101460.32;;;8.05;76.45
40570;BME280;26270;34.428;-119.710;2023-02-28T11:57:18;101460.03;;;8.27;76.92
40570;BME280;26270;34.428;-119.710;2023-02-28T11:59:56;101463.29;;;8.25;76.76
40570;BME280;26270;34.428;-119.710;2023-02-28T12:02:32;101458.30;;;8.04;77.66
40570;BME280;26270;34.428;-119.710;2023-02-28T12:05:13;101460.56;;;8.10;77.01
40570;BME280;26270;34.428;-119.710;2023-02-28T12:07:55;101456.04;;;8.16;77.42
40570;BME280;26270;34.428;-119.710;2023-02-28T12:10:28;101450.25;;;8.10;78.00
40570;BME280;26270;34.428;-119.710;2023-02-28T12:13:06;101448.86;;;8.02;77.72
40570;BME280;26270;34.428;-119.710;2023-02-28T12:15:48;101451.59;;;8.21;78.01
40570;BME280;26270;34.428;-119.710;2023-02-28T12:18:29;101447.64;;;7.97;77.86
40570;BME280;26270;34.428;-119.710;2023-02-28T12:21:08;101443.12;;;8.12;77.20
40570;BME280;26270;34.428;-119.710;2023-02-28T12:23:54;101445.95;;;8.14;76.86
40570;BME280;26270;34.428;-119.710;2023-02-28T12:26:33;101448.78;;;8.09;77.56
40570;BME280;26270;34.428;-119.710;2023-02-28T12:29:12;101450.90;;;8.00;77.84
40570;BME280;26270;34.428;-119.710;2023-02-28T12:31:45;101458.92;;;8.06;77.74
40570;BME280;26270;34.428;-119.710;2023-02-28T12:34:20;101462.64;;;8.13;78.09
40570;BME280;26270;34.428;-119.710;2023-02-28T12:36:52;101452.86;;;8.30;77.83
40570;BME280;26270;34.428;-119.710;2023-02-28T12:39:26;101449.93;;;8.28;77.30
40570;BME280;26270;34.428;-119.710;2023-02-28T12:41:56;101449.09;;;7.88;77.93
40570;BME280;26270;34.428;-119.710;2023-02-28T12:44:32;101451.24;;;8.18;78.10
40570;BME280;26270;34.428;-119.710;2023-02-28T12:47:05;101454.25;;;8.17;77.78